createdAt,value
2023-03-29T10:49:29.695Z,30.04
2023-03-29T10:54:29.794Z,19.84
2023-03-29T13:01:00.206Z,12.73
2023-03-29T13:05:34.851Z,13.27
2023-03-29T13:10:34.320Z,12.02
2023-03-29T13:15:33.983Z,12.61
2023-03-29T13:20:30.849Z,11.61
2023-03-29T13:25:30.495Z,9.74
2023-03-29T13:30:29.706Z,11.41
2023-03-29T13:35:29.405Z,12.32
2023-03-29T13:40:28.685Z,9.12
2023-03-29T13:45:28.487Z,8.49
2023-03-29T13:50:28.678Z,8.09
2023-03-29T13:55:29.352Z,8.94
2023-03-29T14:04:33.616Z,9
2023-03-29T14:09:33.368Z,10.06
2023-03-29T14:14:32.928Z,9.28
2023-03-29T14:19:34.293Z,8.82
2023-03-29T14:24:30.717Z,8.07
2023-03-29T14:29:30.502Z,8.14
2023-03-29T14:34:30.300Z,9.43
2023-03-29T14:39:29.466Z,11.04
2023-03-29T14:44:29.495Z,10.1
2023-03-29T14:49:29.459Z,9.92
2023-03-29T14:54:29.229Z,10.15
2023-03-29T15:34:24.461Z,5.08
2023-03-29T16:04:20.124Z,4.27
2023-03-29T17:00:59.290Z,1.1
2023-03-29T17:05:33.033Z,1.1
2023-03-29T17:10:31.956Z,0.9
2023-03-29T17:15:31.535Z,0.7
2023-03-29T17:20:31.089Z,0.6
2023-03-29T17:25:30.904Z,0.36
2023-03-29T17:30:30.325Z,0.3
2023-03-29T17:35:31.329Z,0.26
2023-03-29T17:40:27.751Z,0.27
2023-03-29T17:45:27.818Z,0.21
2023-03-29T17:50:27.290Z,0.16
2023-03-29T17:55:26.834Z,0.11
2023-03-29T17:59:52.817Z,0.08
2023-03-29T18:09:52.622Z,0.05
2023-03-29T18:14:53.472Z,0.05
2023-03-29T18:19:49.765Z,0.04
2023-03-29T18:24:49.573Z,0.04
2023-03-29T18:29:52.605Z,0.04
2023-03-29T18:34:49.420Z,0.04
2023-03-29T19:04:32.030Z,0.04
2023-03-29T19:09:31.379Z,0.04
2023-03-29T19:14:31.005Z,0.04
2023-03-29T19:19:32.402Z,0.04
2023-03-29T19:24:29.356Z,0.04
2023-03-29T19:29:28.696Z,0.04
2023-03-29T19:34:28.456Z,0.04
2023-03-29T19:39:27.878Z,0.04
2023-03-29T19:44:27.280Z,0.04
2023-03-29T19:49:27.353Z,0.04
2023-03-29T19:54:27.049Z,0.04
2023-03-29T20:49:19.287Z,0.04
2023-03-29T20:54:19.584Z,0.04
2023-03-29T21:01:06.094Z,0.04
2023-03-29T21:05:50.224Z,0.04
2023-03-29T21:10:50.320Z,0.04
2023-03-29T21:15:49.141Z,0.04
2023-03-29T21:20:49.321Z,0.04
2023-03-29T21:25:50.177Z,0.04
2023-03-29T21:30:53.143Z,0.04
2023-03-29T21:35:47.746Z,0.04
2023-03-29T21:40:47.542Z,0.04
2023-03-29T21:45:48.945Z,0.04
2023-03-29T21:50:46.157Z,0.04
2023-03-29T21:55:45.771Z,0.04
